KFRR

Details ICAO KFRR
Name FRONT ROYAL WARREN CO
Region United States
Timezone America/New_York (UTC-5.0)
Plans Departing 0
Arriving 9
Stats Elevation 709 ft / 216 m (AMSL)
Location 38.917507° -78.253525°
Runways 1
Magnetic Variation 10.101° W
Sunrise 2017-12-16 12:26:42 UTC / 2017-12-16 07:26:42 Local
Sunset 2017-12-16 21:53:34 UTC / 2017-12-16 16:53:34 Local
Advertisement - Login to hide

Runways

ID Width Length Bearing (true) Bearing (mag) Surface Threshold Offset Overrun Length
09 75 ft / 23 m 2,921 ft / 890 m 86.84° 96.94° Asphalt 0 ft / 0 m 0 ft / 0 m
27 75 ft / 23 m 2,921 ft / 890 m 266.85° 276.95° Asphalt 0 ft / 0 m 79 ft / 24 m

Map

Weather


0- 5 10 15 20 25 30 35+ Temperature / ° C

Clouds and Precipitation
Forecast for 2017-12-16 12:00 UTC. Updated 28 minutes ago

Ground ~20,000 ft ~40,000 ft Winds

METAR

KFRR 160935Z AUTO 23003KT 10SM OVC044 00/M07 A3005 RMK AO1

TAF

Not found

Frequencies

Unicom 123.00 MHz CTAF/UNICOM
Warning: Do not use this data for real-world aviation or navigation. No guarantee of current accuracy is given.